Station: Whyalla

  Atmospheric Gas Attenuation - ITU Rec 676-11   --------------- db/100km ---------------
Date Time Temp RH % AH g/m3 Dew Point Wind Direction Speed kph Gust kph Barometer mB Rainfall Since 9am 24GHz 47GHz 76GHz 122GHz 134GHz 241GHz
15 01:00 12.4 92 10.05 11.1 13 17 1017.5 0 22.8 28.9 46.8 123.1 120.7 416.1
15 00:50 12.4 89 9.73 10.6 15 17 1017.3 0 22.1 28.4 45.4 119.4 116.1 400.2
15 00:40 12.5 87 9.57 10.4 11 13 1017.2 0 21.7 28.1 44.7 117.4 113.7 391.8
15 00:30 12.5 87 9.57 10.4 13 13 1017.2 0 21.7 28.1 44.7 117.4 113.7 391.8
15 00:20 12.3 87 9.45 10.2 17 20 1017.3 0 21.5 27.9 44.3 116.4 112.3 387.0
15 00:10 12.1 89 9.55 10.3 13 17 1017.3 0 21.7 28.2 44.8 117.8 114.0 392.9
15 00:00 11.7 90 9.41 10.1 15 17 1017.3 0 21.4 28.0 44.5 116.8 112.7 388.1
14 23:50 11.3 90 9.18 9.7 17 19 1017.4 0 21.0 27.8 43.7 114.8 110.0 378.8
14 23:40 11.2 89 9.02 9.5 15 17 1017.4 0 20.6 27.5 43.1 113.1 107.9 371.4
14 23:30 11.4 89 9.14 9.7 15 17 1017.3 0 20.9 27.7 43.5 114.2 109.3 376.3
14 23:20 11.4 90 9.24 9.8 15 17 1017.2 0 21.1 27.8 43.9 115.3 110.7 381.2
14 23:10 11.3 90 9.18 9.7 15 17 1017.3 0 21.0 27.8 43.7 114.8 110.0 378.8
14 23:00 11.5 88 9.09 9.6 11 11 1017.3 0 20.8 27.6 43.2 113.5 108.5 373.4
14 22:50 11.7 88 9.21 9.8 11 13 1017.3 0 21.0 27.7 43.6 114.5 109.9 378.3
14 22:40 12.1 86 9.22 9.8 13 13 1017.2 0 21.0 27.6 43.4 114.1 109.4 376.8
14 22:30 12.6 86 9.52 10.3 11 13 1017.2 0 21.6 27.9 44.4 116.7 112.9 388.9
14 22:20 12.8 85 9.52 10.3 13 15 1017 0 21.6 27.9 44.3 116.4 112.6 387.8
14 22:10 13 85 9.64 10.5 11 13 1017.1 0 21.9 28.0 44.7 117.4 113.9 392.7
14 22:00 13.3 84 9.71 10.7 13 15 1017.2 0 22.0 28.0 44.8 117.8 114.5 394.6
14 21:50 13.4 83 9.65 10.6 13 15 1017.1 0 21.9 27.9 44.5 117.0 113.5 391.1
14 21:40 13.6 83 9.77 10.8 15 17 1017.2 0 22.1 28.0 44.9 118.0 114.9 396.0
14 21:30 13.8 82 9.77 10.8 15 20 1017.1 0 22.1 28.0 44.8 117.7 114.5 394.9
14 21:20 14 81 9.77 10.8 17 19 1017.1 0 22.1 27.9 44.7 117.4 114.2 393.9
14 21:10 14.1 81 9.83 10.9 17 19 1017.2 0 22.2 28.0 44.9 117.9 114.9 396.3
14 21:00 14.3 80 9.83 10.9 15 19 1017.2 0 22.2 27.9 44.8 117.6 114.6 395.3
14 20:50 14.4 79 9.77 10.8 13 17 1017.1 0 22.1 27.8 44.4 116.8 113.7 391.9
14 20:40 14.5 78 9.7 10.7 15 17 1017 0 21.9 27.6 44.1 115.9 112.5 388.0
14 20:30 14.6 77 9.64 10.6 15 19 1016.9 0 21.8 27.5 43.8 115.0 111.6 384.6
14 20:20 14.6 76 9.51 10.4 15 19 1016.8 0 21.5 27.3 43.2 113.6 109.8 378.4
14 20:10 14.9 75 9.56 10.5 15 19 1016.7 0 21.6 27.3 43.3 113.7 110.0 379.3
14 20:00 15.1 74 9.55 10.5 15 17 1016.5 0 21.5 27.2 43.1 113.3 109.6 377.8
14 19:50 15.2 73 9.48 10.4 15 17 1016.5 0 21.4 27.0 42.8 112.4 108.5 374.0
14 19:40 15.2 72 9.35 10.2 11 13 1016.4 0 21.1 26.8 42.2 110.9 106.8 367.9
14 19:30 15.5 71 9.38 10.3 11 15 1016.3 0 21.2 26.8 42.2 110.8 106.7 367.9
14 19:20 15.9 70 9.48 10.4 17 19 1016.1 0 21.4 26.8 42.4 111.3 107.5 370.6
14 19:10 16.2 69 9.51 10.5 20 24 1016.1 0 21.4 26.8 42.3 111.2 107.5 370.6
14 19:00 16.5 67 9.41 10.4 24 32 1016 0 21.2 26.5 41.8 109.7 105.7 364.5
14 18:50 16.8 67 9.58 10.6 28 32 1016 0 21.5 26.7 42.3 111.1 107.6 370.9
14 18:40 16.9 66 9.49 10.5 24 32 1015.9 0 21.3 26.5 41.9 110.0 106.2 366.3
14 18:30 17 65 9.4 10.4 24 33 1015.7 0 21.1 26.3 41.5 108.9 104.9 361.7
14 18:20 17.2 64 9.37 10.3 26 30 1015.7 0 21.1 26.2 41.2 108.3 104.3 359.4
14 18:10 16.7 63 8.95 9.6 17 19 1015.5 0 20.2 25.7 39.8 104.6 99.5 342.6
14 18:00 16.6 62 8.76 9.3 13 13 1015.4 0 19.8 25.4 39.1 102.7 97.1 334.4
14 17:50 17 60 8.68 9.2 13 15 1015.2 0 19.6 25.2 38.6 101.3 95.6 329.1
14 17:40 17.4 58 8.6 9.1 13 15 1015.1 0 19.4 24.9 38.1 100.0 94.1 323.9
14 17:30 18 56 8.6 9.1 13 15 1014.9 0 19.4 24.8 37.8 99.2 93.4 321.4
14 17:20 18.4 55 8.65 9.2 17 20 1014.7 0 19.5 24.7 37.8 99.2 93.5 322.0
14 17:10 18.7 54 8.64 9.2 17 19 1014.6 0 19.4 24.6 37.6 98.7 93.0 320.3
14 17:00 19.1 52 8.52 9 19 22 1014.5 0 19.2 24.3 37.0 97.0 91.1 313.5
14 16:50 19.4 51 8.51 9 28 35 1014.4 0 19.1 24.2 36.8 96.6 90.6 311.9
14 16:40 19.6 52 8.78 9.5 24 30 1014.4 0 19.7 24.6 37.7 99.0 93.7 322.7
14 16:30 19.7 52 8.83 9.6 22 28 1014.3 0 19.8 24.6 37.9 99.4 94.2 324.4
14 16:20 19.8 52 8.88 9.7 26 32 1014.3 0 19.9 24.7 38.0 99.7 94.7 326.1
14 16:10 20 50 8.64 9.3 26 32 1014.2 0 19.4 24.3 37.0 97.1 91.5 315.0
14 16:00 20.3 53 9.32 10.4 28 39 1014.2 0 20.8 25.2 39.4 103.5 99.5 343.1
14 15:50 20.4 50 8.84 9.6 30 33 1014.1 0 19.8 24.5 37.6 98.6 93.4 321.9
14 15:40 20.7 48 8.64 9.3 24 32 1013.9 0 19.3 24.1 36.7 96.2 90.7 312.2
14 15:30 20.7 47 8.46 9 26 32 1013.8 0 19.0 23.8 36.0 94.5 88.5 304.6
14 15:20 20.7 47 8.46 9 19 22 1013.8 0 19.0 23.8 36.0 94.5 88.5 304.6
14 15:10 21.1 45 8.29 8.7 28 37 1013.9 0 18.6 23.4 35.2 92.4 86.0 296.1
14 15:00 21.3 44 8.2 8.6 30 35 1013.9 0 18.4 23.3 34.8 91.3 84.8 291.6
14 14:50 20.8 47 8.51 9.1 30 32 1013.9 0 19.1 23.8 36.2 94.9 89.0 306.4
14 14:40 21.4 45 8.44 9 26 33 1013.8 0 18.9 23.6 35.7 93.5 87.5 301.2
14 14:30 20.9 47 8.56 9.2 28 43 1013.7 0 19.2 23.9 36.3 95.2 89.5 308.0
14 14:20 20.8 46 8.33 8.8 33 39 1013.8 0 18.7 23.6 35.5 93.1 86.8 298.8
14 14:10 20.9 44 8.01 8.2 28 32 1013.8 0 18.0 23.1 34.3 89.9 82.9 285.2
14 14:00 20.2 49 8.57 9.2 26 41 1013.8 0 19.2 24.1 36.7 96.1 90.4 311.2
14 13:50 20.5 49 8.72 9.4 24 28 1013.8 0 19.5 24.2 37.1 97.3 91.8 316.4
14 13:40 19.9 48 8.25 8.6 28 32 1013.9 0 18.6 23.7 35.6 93.4 86.9 298.8
14 13:30 20.2 49 8.57 9.2 30 35 1013.9 0 19.2 24.1 36.7 96.2 90.4 311.2
14 13:20 20.5 49 8.72 9.4 28 32 1014.2 0 19.5 24.2 37.1 97.3 91.9 316.5
14 13:10 20.2 48 8.39 8.8 26 37 1014.3 0 18.8 23.8 36.0 94.4 88.2 303.7
14 13:00 20.1 48 8.34 8.8 33 48 1014.2 0 18.7 23.8 35.9 94.1 87.7 301.9
14 12:50 20.9 50 9.11 10.1 26 32 1014.2 0 20.3 24.7 38.3 100.7 96.1 331.5
14 12:40 20.2 50 8.74 9.5 33 39 1014.6 0 19.6 24.4 37.3 97.9 92.5 318.6
14 12:30 19.6 51 8.61 9.2 32 41 1014.7 0 19.3 24.3 37.1 97.3 91.6 315.5
14 12:20 20 52 8.99 9.9 30 39 1014.8 0 20.1 24.8 38.4 100.6 95.8 330.2
14 12:10 19.1 54 8.85 9.6 20 24 1015.2 0 19.9 24.9 38.3 100.4 95.2 327.9
14 12:00 18.9 53 8.59 9.1 32 33 1015.4 0 19.3 24.5 37.4 98.1 92.2 317.5
14 11:50 19.5 53 8.89 9.7 30 35 1015.5 0 19.9 24.8 38.2 100.3 95.2 328.1
14 11:40 19.2 54 8.9 9.7 33 39 1015.5 0 20.0 24.9 38.4 100.8 95.7 329.8
14 11:30 19.3 57 9.45 10.6 26 32 1015.7 0 21.1 25.7 40.5 106.3 102.5 353.5
14 11:20 18.7 58 9.29 10.3 30 32 1015.8 0 20.8 25.7 40.2 105.5 101.3 349.1
14 11:10 18.6 60 9.55 10.7 32 35 1015.9 0 21.4 26.1 41.2 108.3 104.7 361.2
14 11:00 18.3 62 9.69 10.9 35 44 1016 0 21.7 26.4 41.9 110.2 106.9 368.9
14 10:50 18.8 65 10.47 12.1 24 28 1016.2 0 23.3 27.5 44.8 117.8 116.4 402.2
14 10:40 17.8 66 10.02 11.4 24 30 1016.4 0 22.4 27.1 43.5 114.4 112.0 386.5
14 10:30 17.9 66 10.08 11.5 28 33 1016.4 0 22.5 27.2 43.7 114.9 112.6 388.8
14 10:20 18.2 67 10.41 12 26 32 1016.4 0 23.2 27.6 44.9 118.0 116.6 402.5
14 10:10 17.4 70 10.37 11.9 28 32 1016.4 0 23.2 27.8 45.2 118.8 117.2 404.8
14 10:00 17.3 72 10.61 12.2 28 39 1016.4 0 23.7 28.2 46.2 121.6 120.6 416.6
14 09:50 16.9 72 10.36 11.8 22 28 1016.3 0 23.2 27.9 45.4 119.4 117.8 406.9
14 09:40 16.8 74 10.58 12.1 24 28 1016.1 0 23.7 28.3 46.4 122.0 121.0 417.8
14 09:30 16.5 74 10.39 11.9 24 33 1016 0 23.3 28.1 45.8 120.4 118.8 410.3
14 09:20 16.2 74 10.2 11.6 22 32 1015.8 0 22.9 27.9 45.1 118.7 116.7 402.8
14 09:10 15.9 77 10.43 11.9 20 24 1015.8 0 23.4 28.4 46.3 121.7 120.3 415.3
14 09:00 15.3 77 10.06 11.3 28 30 1015.8 0 22.6 27.9 45.1 118.5 116.2 400.8
14 08:50 14.5 79 9.83 10.9 24 26 1015.8 1 22.2 27.8 44.6 117.2 114.2 393.9
14 08:40 14.1 80 9.71 10.7 19 20 1015.9 1 21.9 27.7 44.3 116.4 113.2 390.1
14 08:30 14 81 9.77 10.8 19 20 1015.9 1 22.1 27.9 44.6 117.3 114.1 393.5

Last Refresh: 15-Jun-2024 01:06:12

Bureau of Meteorology